createdAt,value
2018-07-28T00:00:10.589Z,0
2018-07-28T00:00:23.004Z,0
2018-07-28T00:00:35.394Z,0
2018-07-28T00:00:47.868Z,0
2018-07-28T00:01:00.296Z,0
2018-07-28T00:01:12.713Z,0
2018-07-28T00:01:25.324Z,0
2018-07-28T00:01:37.716Z,0
2018-07-28T00:01:50.142Z,0
2018-07-28T00:02:02.607Z,0
2018-07-28T00:02:15.282Z,0
2018-07-28T00:02:27.665Z,0
2018-07-28T00:02:40.059Z,0
2018-07-28T00:02:52.468Z,0
2018-07-28T00:03:04.888Z,0
2018-07-28T00:03:17.440Z,0
2018-07-28T00:03:29.850Z,0
2018-07-28T00:03:42.280Z,0
2018-07-28T00:03:54.685Z,1.609344
2018-07-28T00:04:07.135Z,1.609344
2018-07-28T00:04:19.542Z,1.609344
2018-07-28T00:04:32.003Z,1.609344
2018-07-28T00:04:44.438Z,1.609344
2018-07-28T00:04:56.837Z,1.609344
2018-07-28T00:05:09.230Z,1.609344
2018-07-28T00:05:21.661Z,1.609344
2018-07-28T00:05:34.063Z,1.609344
2018-07-28T00:05:46.459Z,1.609344
2018-07-28T00:05:58.961Z,0
2018-07-28T00:06:11.352Z,0
2018-07-28T00:06:23.749Z,0
2018-07-28T00:06:36.135Z,0
2018-07-28T00:06:48.532Z,0
2018-07-28T00:07:00.944Z,0
2018-07-28T00:07:13.361Z,0
2018-07-28T00:07:25.747Z,0
2018-07-28T00:07:38.143Z,0
2018-07-28T00:07:50.538Z,0
2018-07-28T00:08:02.925Z,0
2018-07-28T00:08:15.362Z,0
2018-07-28T00:08:27.745Z,0
2018-07-28T00:08:40.234Z,0
2018-07-28T00:08:52.654Z,0
2018-07-28T00:09:05.069Z,0
2018-07-28T00:09:17.500Z,0
2018-07-28T00:09:29.897Z,0
2018-07-28T00:09:42.286Z,1.609344
2018-07-28T00:09:54.697Z,3.218688
2018-07-28T00:10:07.095Z,3.218688
2018-07-28T00:10:19.475Z,3.218688
2018-07-28T00:10:31.884Z,1.609344
2018-07-28T00:10:44.292Z,0
2018-07-28T00:10:56.744Z,1.609344
2018-07-28T00:11:09.194Z,0
2018-07-28T00:11:21.629Z,0
2018-07-28T00:11:34.025Z,1.609344
2018-07-28T00:11:46.435Z,1.609344
2018-07-28T00:11:58.817Z,0
2018-07-28T00:12:11.219Z,1.609344
2018-07-28T00:12:23.634Z,1.609344
2018-07-28T00:12:36.058Z,1.609344
2018-07-28T00:12:48.494Z,1.609344
2018-07-28T00:13:00.912Z,1.609344
2018-07-28T00:13:13.333Z,3.218688
2018-07-28T00:13:25.717Z,1.609344
2018-07-28T00:13:38.136Z,1.609344
2018-07-28T00:13:50.531Z,0
2018-07-28T00:14:02.911Z,0
2018-07-28T00:14:15.299Z,0
2018-07-28T00:14:27.699Z,0
2018-07-28T00:14:40.100Z,0
2018-07-28T00:14:52.521Z,1.609344
2018-07-28T00:15:04.912Z,0
2018-07-28T00:15:17.314Z,1.609344
2018-07-28T00:15:29.736Z,1.609344
2018-07-28T00:15:42.116Z,3.218688
2018-07-28T00:15:54.544Z,3.218688
2018-07-28T00:16:07.088Z,6.437376
2018-07-28T00:16:19.577Z,6.437376
2018-07-28T00:16:31.969Z,4.828032
2018-07-28T00:16:44.356Z,3.218688
2018-07-28T00:16:56.757Z,0
2018-07-28T00:17:09.160Z,1.609344
2018-07-28T00:17:21.569Z,1.609344
2018-07-28T00:17:33.982Z,1.609344
2018-07-28T00:17:46.389Z,0
2018-07-28T00:17:58.772Z,0
2018-07-28T00:18:11.165Z,0
2018-07-28T00:18:23.567Z,1.609344
2018-07-28T00:18:35.979Z,0
2018-07-28T00:18:48.366Z,0
2018-07-28T00:19:00.781Z,0
2018-07-28T00:19:13.185Z,0
2018-07-28T00:19:25.664Z,0
2018-07-28T00:19:38.060Z,0
2018-07-28T00:19:50.438Z,0
2018-07-28T00:20:02.868Z,0
2018-07-28T00:20:15.259Z,0
2018-07-28T00:20:27.663Z,0
2018-07-28T00:20:40.065Z,0
2018-07-28T00:20:52.486Z,3.218688
2018-07-28T00:21:04.875Z,3.218688
2018-07-28T00:21:17.332Z,3.218688
2018-07-28T00:21:29.726Z,1.609344
2018-07-28T00:21:42.202Z,1.609344
2018-07-28T00:21:54.596Z,1.609344
2018-07-28T00:22:07.031Z,3.218688
2018-07-28T00:22:19.791Z,1.609344
2018-07-28T00:22:32.329Z,3.218688
2018-07-28T00:22:44.717Z,4.828032
2018-07-28T00:22:57.101Z,6.437376
2018-07-28T00:23:09.494Z,3.218688
2018-07-28T00:23:22.080Z,4.828032
2018-07-28T00:23:34.473Z,3.218688
2018-07-28T00:23:46.916Z,1.609344
2018-07-28T00:23:59.305Z,1.609344
2018-07-28T00:24:11.695Z,1.609344
2018-07-28T00:24:24.118Z,1.609344
2018-07-28T00:24:36.526Z,1.609344
2018-07-28T00:24:48.930Z,1.609344
2018-07-28T00:25:01.328Z,3.218688
2018-07-28T00:25:13.735Z,1.609344
2018-07-28T00:25:26.121Z,1.609344
2018-07-28T00:25:38.521Z,1.609344
2018-07-28T00:25:50.911Z,1.609344
2018-07-28T00:26:03.336Z,0
2018-07-28T00:26:15.750Z,1.609344
2018-07-28T00:26:28.164Z,0
2018-07-28T00:26:40.562Z,1.609344
2018-07-28T00:26:52.967Z,0
2018-07-28T00:27:05.349Z,1.609344
2018-07-28T00:27:17.762Z,1.609344
2018-07-28T00:27:30.177Z,1.609344
2018-07-28T00:27:42.567Z,3.218688
2018-07-28T00:27:54.966Z,3.218688
2018-07-28T00:28:07.425Z,4.828032
2018-07-28T00:28:19.855Z,6.437376
2018-07-28T00:28:32.278Z,4.828032
2018-07-28T00:28:44.843Z,3.218688
2018-07-28T00:28:57.253Z,3.218688
2018-07-28T00:29:09.656Z,1.609344
2018-07-28T00:29:22.055Z,1.609344
2018-07-28T00:29:34.478Z,0
2018-07-28T00:29:46.883Z,0
2018-07-28T00:29:59.320Z,0
2018-07-28T00:30:11.727Z,0
2018-07-28T00:30:24.129Z,0
2018-07-28T00:30:36.511Z,1.609344
2018-07-28T00:30:48.911Z,1.609344
2018-07-28T00:31:01.302Z,1.609344
2018-07-28T00:31:13.707Z,3.218688
2018-07-28T00:31:26.117Z,3.218688
2018-07-28T00:31:38.539Z,1.609344
2018-07-28T00:31:50.928Z,0
2018-07-28T00:32:03.330Z,0
2018-07-28T00:32:15.748Z,1.609344
2018-07-28T00:32:28.151Z,8.04672
2018-07-28T00:32:40.558Z,6.437376
2018-07-28T00:32:52.954Z,3.218688
2018-07-28T00:33:05.353Z,3.218688
2018-07-28T00:33:17.761Z,3.218688
2018-07-28T00:33:30.162Z,4.828032
2018-07-28T00:33:42.578Z,4.828032
2018-07-28T00:33:54.977Z,3.218688
2018-07-28T00:34:07.430Z,4.828032
2018-07-28T00:34:19.804Z,1.609344
2018-07-28T00:34:32.214Z,1.609344
2018-07-28T00:34:44.599Z,0
2018-07-28T00:34:57.010Z,0
2018-07-28T00:35:09.395Z,3.218688
2018-07-28T00:35:21.797Z,0
2018-07-28T00:35:34.186Z,3.218688
2018-07-28T00:35:46.591Z,1.609344
2018-07-28T00:35:58.989Z,1.609344
2018-07-28T00:36:11.408Z,0
2018-07-28T00:36:23.809Z,0
2018-07-28T00:36:36.199Z,0
2018-07-28T00:36:48.600Z,0
2018-07-28T00:37:00.989Z,1.609344
2018-07-28T00:37:13.398Z,3.218688
2018-07-28T00:37:25.787Z,3.218688
2018-07-28T00:37:38.177Z,1.609344
2018-07-28T00:37:50.569Z,0
2018-07-28T00:38:02.961Z,1.609344
2018-07-28T00:38:15.349Z,3.218688
2018-07-28T00:38:27.753Z,1.609344
2018-07-28T00:38:40.205Z,1.609344
2018-07-28T00:38:52.646Z,1.609344
2018-07-28T00:39:05.049Z,1.609344
2018-07-28T00:39:17.531Z,1.609344
2018-07-28T00:39:29.933Z,1.609344
2018-07-28T00:39:42.347Z,1.609344
2018-07-28T00:39:54.807Z,3.218688
2018-07-28T00:40:07.216Z,3.218688
2018-07-28T00:40:19.637Z,3.218688
2018-07-28T00:40:32.024Z,3.218688
2018-07-28T00:40:44.426Z,1.609344
2018-07-28T00:40:56.817Z,0
2018-07-28T00:41:09.211Z,1.609344
2018-07-28T00:41:21.594Z,1.609344
2018-07-28T00:41:33.994Z,3.218688
2018-07-28T00:41:46.407Z,3.218688
2018-07-28T00:41:58.805Z,3.218688
2018-07-28T00:42:11.238Z,1.609344
2018-07-28T00:42:23.629Z,1.609344
2018-07-28T00:42:36.024Z,1.609344
2018-07-28T00:42:48.423Z,1.609344
2018-07-28T00:43:00.811Z,1.609344
2018-07-28T00:43:13.197Z,1.609344
2018-07-28T00:43:25.592Z,1.609344
2018-07-28T00:43:37.977Z,1.609344
2018-07-28T00:43:50.385Z,1.609344
2018-07-28T00:44:02.766Z,1.609344
2018-07-28T00:44:15.182Z,3.218688
2018-07-28T00:44:27.616Z,1.609344
2018-07-28T00:44:40.009Z,1.609344
2018-07-28T00:44:52.502Z,6.437376
2018-07-28T00:45:04.905Z,3.218688
2018-07-28T00:45:17.305Z,3.218688
2018-07-28T00:45:29.710Z,3.218688
2018-07-28T00:45:42.099Z,1.609344
2018-07-28T00:45:54.495Z,6.437376
2018-07-28T00:46:06.969Z,1.609344
2018-07-28T00:46:19.367Z,1.609344
2018-07-28T00:46:31.754Z,3.218688
2018-07-28T00:46:44.150Z,8.04672
2018-07-28T00:46:56.539Z,11.265408
2018-07-28T00:47:08.938Z,3.218688
2018-07-28T00:47:21.334Z,4.828032
2018-07-28T00:47:33.734Z,3.218688
2018-07-28T00:47:46.111Z,3.218688
2018-07-28T00:47:58.508Z,4.828032
2018-07-28T00:48:10.904Z,8.04672
2018-07-28T00:48:23.310Z,6.437376
2018-07-28T00:48:35.706Z,6.437376
2018-07-28T00:48:48.131Z,3.218688
2018-07-28T00:49:00.728Z,3.218688
2018-07-28T00:49:13.131Z,1.609344
2018-07-28T00:49:25.551Z,1.609344
2018-07-28T00:49:37.987Z,1.609344
2018-07-28T00:49:50.387Z,1.609344
2018-07-28T00:50:02.821Z,3.218688
2018-07-28T00:50:15.228Z,1.609344
2018-07-28T00:50:27.651Z,0
2018-07-28T00:50:40.037Z,1.609344
2018-07-28T00:50:52.441Z,1.609344
2018-07-28T00:51:04.845Z,1.609344
2018-07-28T00:51:17.259Z,4.828032
2018-07-28T00:51:29.674Z,3.218688
2018-07-28T00:51:42.213Z,6.437376
2018-07-28T00:51:54.632Z,3.218688
2018-07-28T00:52:07.057Z,4.828032
2018-07-28T00:52:19.454Z,3.218688
2018-07-28T00:52:31.889Z,3.218688
2018-07-28T00:52:44.310Z,1.609344
2018-07-28T00:52:56.702Z,1.609344
2018-07-28T00:53:09.101Z,1.609344
2018-07-28T00:53:21.664Z,1.609344
2018-07-28T00:53:34.050Z,1.609344
2018-07-28T00:53:46.478Z,0
2018-07-28T00:53:58.900Z,1.609344
2018-07-28T00:54:11.349Z,3.218688
2018-07-28T00:54:23.825Z,3.218688
2018-07-28T00:54:36.231Z,1.609344
2018-07-28T00:54:48.607Z,1.609344
2018-07-28T00:55:01.013Z,3.218688
2018-07-28T00:55:13.411Z,3.218688
2018-07-28T00:55:25.882Z,3.218688
2018-07-28T00:55:38.277Z,3.218688
2018-07-28T00:55:50.669Z,1.609344
2018-07-28T00:56:03.076Z,1.609344
2018-07-28T00:56:15.464Z,1.609344
2018-07-28T00:56:27.863Z,3.218688
2018-07-28T00:56:40.283Z,3.218688
2018-07-28T00:56:52.696Z,3.218688
2018-07-28T00:57:05.100Z,1.609344
2018-07-28T00:57:17.494Z,0
2018-07-28T00:57:29.924Z,3.218688
2018-07-28T00:57:42.389Z,3.218688
2018-07-28T00:57:54.784Z,6.437376
2018-07-28T00:58:07.187Z,4.828032
2018-07-28T00:58:19.604Z,3.218688
2018-07-28T00:58:32.005Z,3.218688
2018-07-28T00:58:44.409Z,3.218688
2018-07-28T00:58:56.794Z,1.609344
2018-07-28T00:59:09.217Z,1.609344
2018-07-28T00:59:21.609Z,1.609344
2018-07-28T00:59:34.029Z,0
2018-07-28T00:59:46.451Z,1.609344
2018-07-28T00:59:58.857Z,1.609344
2018-07-28T01:00:11.294Z,1.609344
2018-07-28T01:00:23.693Z,1.609344
2018-07-28T01:00:36.135Z,1.609344
2018-07-28T01:00:48.734Z,0
2018-07-28T01:01:01.189Z,0
2018-07-28T01:01:13.641Z,3.218688
2018-07-28T01:01:26.071Z,1.609344
2018-07-28T01:01:38.492Z,4.828032
2018-07-28T01:01:50.938Z,1.609344
2018-07-28T01:02:03.351Z,1.609344
2018-07-28T01:02:15.889Z,1.609344
2018-07-28T01:02:28.307Z,1.609344
2018-07-28T01:02:40.731Z,1.609344
2018-07-28T01:02:53.140Z,1.609344
2018-07-28T01:03:05.552Z,1.609344
2018-07-28T01:03:17.952Z,0
2018-07-28T01:03:30.395Z,3.218688
2018-07-28T01:03:42.813Z,1.609344
2018-07-28T01:03:55.354Z,1.609344
2018-07-28T01:04:07.777Z,1.609344
2018-07-28T01:04:20.185Z,6.437376
2018-07-28T01:04:32.763Z,1.609344
2018-07-28T01:04:45.168Z,1.609344
2018-07-28T01:04:57.601Z,0
2018-07-28T01:05:10.017Z,0
2018-07-28T01:05:22.434Z,0
2018-07-28T01:05:34.846Z,1.609344
2018-07-28T01:05:47.238Z,3.218688
2018-07-28T01:05:59.801Z,1.609344
2018-07-28T01:06:12.219Z,1.609344
2018-07-28T01:06:24.609Z,1.609344
2018-07-28T01:06:37.024Z,1.609344
2018-07-28T01:06:49.432Z,1.609344
2018-07-28T01:07:01.821Z,0
2018-07-28T01:07:14.222Z,0
2018-07-28T01:07:26.645Z,0
2018-07-28T01:07:39.058Z,0
2018-07-28T01:07:51.460Z,0
2018-07-28T01:08:03.850Z,0
2018-07-28T01:08:16.234Z,0
2018-07-28T01:08:28.615Z,1.609344
2018-07-28T01:08:41.006Z,3.218688
2018-07-28T01:08:53.398Z,4.828032
2018-07-28T01:09:05.831Z,3.218688
2018-07-28T01:09:18.222Z,3.218688
2018-07-28T01:09:30.617Z,1.609344
2018-07-28T01:09:43.074Z,0
2018-07-28T01:09:55.486Z,0
2018-07-28T01:10:07.911Z,0
2018-07-28T01:10:20.316Z,0
2018-07-28T01:10:32.709Z,0
2018-07-28T01:10:45.157Z,0
2018-07-28T01:10:57.597Z,0
2018-07-28T01:11:10.019Z,0
2018-07-28T01:11:22.449Z,0
2018-07-28T01:11:34.856Z,0
2018-07-28T01:11:47.235Z,4.828032
2018-07-28T01:11:59.622Z,3.218688
2018-07-28T01:12:12.032Z,1.609344
2018-07-28T01:12:24.434Z,1.609344
2018-07-28T01:12:36.826Z,1.609344
2018-07-28T01:12:49.219Z,3.218688
2018-07-28T01:13:01.604Z,1.609344
2018-07-28T01:13:13.999Z,1.609344
2018-07-28T01:13:26.397Z,1.609344
2018-07-28T01:13:38.815Z,0
2018-07-28T01:13:51.221Z,3.218688
2018-07-28T01:14:03.655Z,3.218688
2018-07-28T01:14:16.076Z,1.609344
2018-07-28T01:14:28.485Z,3.218688
2018-07-28T01:14:40.899Z,1.609344
2018-07-28T01:14:53.358Z,1.609344
2018-07-28T01:15:05.770Z,0
2018-07-28T01:15:18.165Z,0
2018-07-28T01:15:30.577Z,0
2018-07-28T01:15:42.982Z,1.609344
2018-07-28T01:15:55.755Z,8.04672
2018-07-28T01:16:08.160Z,8.04672
2018-07-28T01:16:20.545Z,8.04672
2018-07-28T01:16:32.968Z,4.828032
2018-07-28T01:16:45.479Z,6.437376
2018-07-28T01:16:57.859Z,3.218688
2018-07-28T01:17:10.307Z,4.828032
2018-07-28T01:17:22.703Z,3.218688
2018-07-28T01:17:35.101Z,1.609344
2018-07-28T01:17:47.482Z,3.218688
2018-07-28T01:17:59.890Z,1.609344
2018-07-28T01:18:12.285Z,1.609344
2018-07-28T01:18:24.683Z,1.609344
2018-07-28T01:18:37.102Z,0
2018-07-28T01:18:49.496Z,0
2018-07-28T01:19:01.882Z,0
2018-07-28T01:19:14.299Z,1.609344
2018-07-28T01:19:26.859Z,1.609344
2018-07-28T01:19:39.262Z,1.609344
2018-07-28T01:19:51.654Z,0
2018-07-28T01:20:04.064Z,0
2018-07-28T01:20:16.450Z,1.609344
2018-07-28T01:20:28.847Z,3.218688
2018-07-28T01:20:41.270Z,1.609344
2018-07-28T01:20:53.663Z,3.218688
2018-07-28T01:21:06.059Z,1.609344
2018-07-28T01:21:18.460Z,3.218688
2018-07-28T01:21:30.853Z,6.437376
2018-07-28T01:21:43.403Z,3.218688
2018-07-28T01:21:55.797Z,3.218688
2018-07-28T01:22:08.194Z,3.218688
2018-07-28T01:22:20.806Z,6.437376
2018-07-28T01:22:33.224Z,3.218688
2018-07-28T01:22:45.619Z,1.609344
2018-07-28T01:22:58.049Z,3.218688
2018-07-28T01:23:10.441Z,1.609344
2018-07-28T01:23:22.981Z,1.609344
2018-07-28T01:23:35.379Z,1.609344
2018-07-28T01:23:47.773Z,3.218688
2018-07-28T01:24:00.174Z,3.218688
2018-07-28T01:24:12.609Z,1.609344
2018-07-28T01:24:25.004Z,1.609344
2018-07-28T01:24:37.445Z,1.609344
2018-07-28T01:24:49.853Z,0
2018-07-28T01:25:02.248Z,1.609344
2018-07-28T01:25:14.715Z,0
2018-07-28T01:25:27.109Z,1.609344
2018-07-28T01:25:39.511Z,0
2018-07-28T01:25:51.914Z,1.609344
2018-07-28T01:26:04.350Z,1.609344
2018-07-28T01:26:16.740Z,0
2018-07-28T01:26:29.193Z,1.609344
2018-07-28T01:26:41.607Z,0
2018-07-28T01:26:54.011Z,0
2018-07-28T01:27:06.436Z,0
2018-07-28T01:27:18.843Z,0
2018-07-28T01:27:31.248Z,0
2018-07-28T01:27:43.656Z,0
2018-07-28T01:27:56.033Z,0
2018-07-28T01:28:08.427Z,0
2018-07-28T01:28:20.846Z,3.218688
2018-07-28T01:28:33.257Z,3.218688
2018-07-28T01:28:45.644Z,1.609344
2018-07-28T01:28:58.043Z,1.609344
2018-07-28T01:29:10.441Z,1.609344
2018-07-28T01:29:22.833Z,3.218688
2018-07-28T01:29:35.230Z,3.218688
2018-07-28T01:29:47.636Z,6.437376
2018-07-28T01:30:00.038Z,4.828032
2018-07-28T01:30:12.447Z,1.609344
2018-07-28T01:30:24.853Z,1.609344
2018-07-28T01:30:37.252Z,1.609344
2018-07-28T01:30:49.632Z,1.609344
2018-07-28T01:31:02.024Z,3.218688
2018-07-28T01:31:14.419Z,3.218688
2018-07-28T01:31:26.809Z,3.218688
2018-07-28T01:31:39.196Z,3.218688
2018-07-28T01:31:51.587Z,4.828032
2018-07-28T01:32:03.972Z,1.609344
2018-07-28T01:32:16.371Z,1.609344
2018-07-28T01:32:28.768Z,1.609344
2018-07-28T01:32:41.161Z,0
2018-07-28T01:32:53.613Z,0
2018-07-28T01:33:06.039Z,1.609344
2018-07-28T01:33:18.558Z,0
2018-07-28T01:33:30.959Z,0
2018-07-28T01:33:43.369Z,0
2018-07-28T01:33:55.749Z,0
2018-07-28T01:34:08.138Z,1.609344
2018-07-28T01:34:20.550Z,1.609344
2018-07-28T01:34:32.968Z,1.609344
2018-07-28T01:34:45.367Z,1.609344
2018-07-28T01:34:57.773Z,0
2018-07-28T01:35:10.174Z,0
2018-07-28T01:35:22.551Z,0
2018-07-28T01:35:34.974Z,0
2018-07-28T01:35:47.395Z,0
2018-07-28T01:35:59.792Z,0
2018-07-28T01:36:12.187Z,0
2018-07-28T01:36:24.578Z,1.609344
2018-07-28T01:36:36.979Z,1.609344
2018-07-28T01:36:49.364Z,1.609344
2018-07-28T01:37:01.767Z,0
2018-07-28T01:37:14.229Z,1.609344
2018-07-28T01:37:26.618Z,0
2018-07-28T01:37:39.012Z,0
2018-07-28T01:37:51.418Z,1.609344
2018-07-28T01:38:03.891Z,0
2018-07-28T01:38:16.464Z,0
2018-07-28T01:38:28.861Z,0
2018-07-28T01:38:41.264Z,0
2018-07-28T01:38:53.637Z,1.609344
2018-07-28T01:39:06.161Z,0
2018-07-28T01:39:18.588Z,0
2018-07-28T01:39:30.986Z,1.609344
2018-07-28T01:39:43.415Z,0
2018-07-28T01:39:55.959Z,1.609344
2018-07-28T01:40:08.365Z,1.609344
2018-07-28T01:40:20.756Z,1.609344
2018-07-28T01:40:33.149Z,0
2018-07-28T01:40:45.637Z,0
2018-07-28T01:40:58.052Z,3.218688
2018-07-28T01:41:10.473Z,1.609344
2018-07-28T01:41:22.882Z,8.04672
2018-07-28T01:41:35.277Z,9.656064
2018-07-28T01:41:47.690Z,6.437376
2018-07-28T01:42:00.102Z,1.609344
2018-07-28T01:42:12.485Z,3.218688
2018-07-28T01:42:24.900Z,3.218688
2018-07-28T01:42:37.341Z,3.218688
2018-07-28T01:42:49.743Z,3.218688
2018-07-28T01:43:02.141Z,1.609344
2018-07-28T01:43:14.550Z,1.609344
2018-07-28T01:43:26.938Z,1.609344
2018-07-28T01:43:39.380Z,1.609344
2018-07-28T01:43:51.770Z,0
2018-07-28T01:44:04.149Z,1.609344
2018-07-28T01:44:16.564Z,4.828032
2018-07-28T01:44:28.953Z,6.437376
2018-07-28T01:44:41.418Z,3.218688
2018-07-28T01:44:53.825Z,3.218688
2018-07-28T01:45:06.232Z,4.828032
2018-07-28T01:45:18.606Z,3.218688
2018-07-28T01:45:30.987Z,1.609344
2018-07-28T01:45:43.393Z,0
2018-07-28T01:45:55.818Z,0
2018-07-28T01:46:08.251Z,0
2018-07-28T01:46:20.657Z,0
2018-07-28T01:46:33.065Z,0
2018-07-28T01:46:45.476Z,0
2018-07-28T01:46:57.873Z,0
2018-07-28T01:47:10.264Z,0
2018-07-28T01:47:22.651Z,1.609344
2018-07-28T01:47:35.122Z,1.609344
2018-07-28T01:47:47.527Z,3.218688
2018-07-28T01:48:00.078Z,3.218688
2018-07-28T01:48:12.469Z,1.609344
2018-07-28T01:48:24.886Z,0
2018-07-28T01:48:37.306Z,0
2018-07-28T01:48:49.718Z,1.609344
2018-07-28T01:49:02.261Z,1.609344
2018-07-28T01:49:14.670Z,0
2018-07-28T01:49:27.391Z,1.609344
2018-07-28T01:49:40.555Z,1.609344
2018-07-28T01:49:52.953Z,1.609344
2018-07-28T01:50:05.373Z,1.609344
2018-07-28T01:50:17.775Z,1.609344
2018-07-28T01:50:30.201Z,0
2018-07-28T01:50:42.584Z,1.609344
2018-07-28T01:50:54.971Z,0
2018-07-28T01:51:07.383Z,0
2018-07-28T01:51:19.773Z,0
2018-07-28T01:51:32.191Z,0
2018-07-28T01:51:44.783Z,0
2018-07-28T01:51:57.204Z,0
2018-07-28T01:52:09.608Z,1.609344
2018-07-28T01:52:22.004Z,1.609344
2018-07-28T01:52:34.400Z,0
2018-07-28T01:52:46.821Z,0
2018-07-28T01:52:59.213Z,0
2018-07-28T01:53:11.625Z,1.609344
2018-07-28T01:53:24.207Z,0
2018-07-28T01:53:36.600Z,1.609344
2018-07-28T01:53:49.006Z,3.218688
2018-07-28T01:54:01.398Z,3.218688
2018-07-28T01:54:13.802Z,3.218688
2018-07-28T01:54:26.180Z,3.218688
2018-07-28T01:54:38.586Z,3.218688
2018-07-28T01:54:50.972Z,3.218688
2018-07-28T01:55:03.373Z,3.218688
2018-07-28T01:55:15.774Z,3.218688
2018-07-28T01:55:28.350Z,0
2018-07-28T01:55:40.758Z,3.218688
2018-07-28T01:55:53.169Z,3.218688
2018-07-28T01:56:05.574Z,3.218688
2018-07-28T01:56:17.966Z,3.218688
2018-07-28T01:56:30.378Z,3.218688
2018-07-28T01:56:42.811Z,3.218688
2018-07-28T01:56:55.217Z,6.437376
2018-07-28T01:57:07.648Z,6.437376
2018-07-28T01:57:20.054Z,3.218688
2018-07-28T01:57:32.445Z,3.218688
2018-07-28T01:57:44.825Z,6.437376
2018-07-28T01:57:57.260Z,3.218688
2018-07-28T01:58:09.665Z,4.828032
2018-07-28T01:58:22.058Z,3.218688
2018-07-28T01:58:34.626Z,3.218688
2018-07-28T01:58:47.033Z,4.828032
2018-07-28T01:58:59.427Z,4.828032
2018-07-28T01:59:11.821Z,8.04672
2018-07-28T01:59:24.248Z,4.828032
2018-07-28T01:59:36.742Z,8.04672
2018-07-28T01:59:49.840Z,9.656064
2018-07-28T02:00:02.450Z,6.437376
2018-07-28T02:00:14.882Z,9.656064
2018-07-28T02:00:27.314Z,8.04672
2018-07-28T02:00:39.732Z,6.437376
2018-07-28T02:00:52.275Z,1.609344
2018-07-28T02:01:04.674Z,1.609344
2018-07-28T02:01:17.062Z,0
2018-07-28T02:01:29.465Z,3.218688
2018-07-28T02:01:41.956Z,6.437376
2018-07-28T02:01:54.376Z,6.437376
2018-07-28T02:02:06.960Z,6.437376
2018-07-28T02:02:19.398Z,6.437376
2018-07-28T02:02:31.799Z,3.218688
2018-07-28T02:02:44.217Z,3.218688
2018-07-28T02:02:56.637Z,3.218688
2018-07-28T02:03:09.064Z,3.218688
2018-07-28T02:03:21.478Z,1.609344
2018-07-28T02:03:33.868Z,3.218688
2018-07-28T02:03:46.300Z,4.828032
2018-07-28T02:03:58.708Z,3.218688
2018-07-28T02:04:11.125Z,3.218688
2018-07-28T02:04:23.732Z,4.828032
2018-07-28T02:04:36.167Z,6.437376
2018-07-28T02:04:48.573Z,3.218688
2018-07-28T02:05:00.982Z,3.218688
2018-07-28T02:05:13.432Z,3.218688
2018-07-28T02:05:25.849Z,3.218688
2018-07-28T02:05:38.250Z,3.218688
2018-07-28T02:05:50.925Z,3.218688
2018-07-28T02:06:03.342Z,0
2018-07-28T02:06:15.806Z,0
2018-07-28T02:06:28.196Z,1.609344
2018-07-28T02:06:40.597Z,1.609344
2018-07-28T02:06:52.998Z,1.609344
2018-07-28T02:07:05.399Z,1.609344
2018-07-28T02:07:17.798Z,1.609344
2018-07-28T02:07:30.189Z,3.218688
2018-07-28T02:07:42.603Z,3.218688
2018-07-28T02:07:54.994Z,1.609344
2018-07-28T02:08:07.395Z,1.609344
2018-07-28T02:08:19.775Z,3.218688
2018-07-28T02:08:32.172Z,1.609344
2018-07-28T02:08:44.575Z,3.218688
2018-07-28T02:08:56.965Z,3.218688
2018-07-28T02:09:09.381Z,1.609344
2018-07-28T02:09:21.798Z,1.609344
2018-07-28T02:09:34.196Z,0
2018-07-28T02:09:46.632Z,0
2018-07-28T02:09:59.043Z,0
2018-07-28T02:10:11.484Z,0
2018-07-28T02:10:23.936Z,0
2018-07-28T02:10:36.352Z,1.609344
2018-07-28T02:10:48.785Z,0
2018-07-28T02:11:01.169Z,1.609344
2018-07-28T02:11:13.565Z,1.609344
2018-07-28T02:11:25.958Z,0
2018-07-28T02:11:38.352Z,0
2018-07-28T02:11:50.758Z,1.609344
2018-07-28T02:12:03.144Z,1.609344
2018-07-28T02:12:15.537Z,1.609344
2018-07-28T02:12:27.920Z,0
2018-07-28T02:12:40.310Z,0
2018-07-28T02:12:52.741Z,0
2018-07-28T02:13:05.143Z,0
2018-07-28T02:13:17.536Z,0
2018-07-28T02:13:29.929Z,0
2018-07-28T02:13:42.369Z,0
2018-07-28T02:13:54.743Z,1.609344
2018-07-28T02:14:07.115Z,1.609344
2018-07-28T02:14:19.484Z,3.218688
2018-07-28T02:14:31.875Z,1.609344
2018-07-28T02:14:44.273Z,0
2018-07-28T02:14:56.654Z,1.609344
2018-07-28T02:15:09.093Z,0
2018-07-28T02:15:21.489Z,0
2018-07-28T02:15:33.870Z,0
2018-07-28T02:15:46.283Z,0
2018-07-28T02:15:58.716Z,0
2018-07-28T02:16:11.120Z,0
2018-07-28T02:16:23.526Z,0
2018-07-28T02:16:35.953Z,0
2018-07-28T02:16:48.407Z,0
2018-07-28T02:17:00.819Z,0
2018-07-28T02:17:13.511Z,0
2018-07-28T02:17:25.913Z,0
2018-07-28T02:17:38.311Z,0
2018-07-28T02:17:50.693Z,1.609344
2018-07-28T02:18:03.118Z,1.609344
2018-07-28T02:18:15.526Z,0
2018-07-28T02:18:27.933Z,0
2018-07-28T02:18:40.329Z,0
2018-07-28T02:18:52.726Z,0
2018-07-28T02:19:05.112Z,0
2018-07-28T02:19:17.682Z,1.609344
2018-07-28T02:19:30.082Z,1.609344
2018-07-28T02:19:42.513Z,0
2018-07-28T02:19:54.946Z,0
2018-07-28T02:20:07.340Z,1.609344
2018-07-28T02:20:19.750Z,1.609344
2018-07-28T02:20:32.144Z,1.609344
2018-07-28T02:20:44.587Z,3.218688
2018-07-28T02:20:56.973Z,1.609344
2018-07-28T02:21:09.381Z,6.437376
2018-07-28T02:21:21.785Z,6.437376
2018-07-28T02:21:34.235Z,9.656064
2018-07-28T02:21:46.647Z,6.437376
2018-07-28T02:21:59.032Z,6.437376
2018-07-28T02:22:11.439Z,4.828032
2018-07-28T02:22:24.168Z,1.609344
2018-07-28T02:22:36.554Z,1.609344
2018-07-28T02:22:48.956Z,1.609344
2018-07-28T02:23:01.390Z,1.609344
2018-07-28T02:23:13.954Z,0
2018-07-28T02:23:26.353Z,1.609344
2018-07-28T02:23:38.736Z,1.609344
2018-07-28T02:23:51.154Z,0
2018-07-28T02:24:03.553Z,0
2018-07-28T02:24:15.977Z,0
2018-07-28T02:24:28.380Z,0
2018-07-28T02:24:40.779Z,1.609344
2018-07-28T02:24:53.179Z,0
2018-07-28T02:25:05.594Z,3.218688
2018-07-28T02:25:17.981Z,4.828032
2018-07-28T02:25:30.398Z,8.04672
2018-07-28T02:25:42.799Z,4.828032
2018-07-28T02:25:55.229Z,4.828032
2018-07-28T02:26:07.635Z,3.218688
2018-07-28T02:26:20.053Z,1.609344
2018-07-28T02:26:32.452Z,1.609344
2018-07-28T02:26:44.844Z,3.218688
2018-07-28T02:26:57.267Z,1.609344
2018-07-28T02:27:09.661Z,1.609344
2018-07-28T02:27:22.105Z,3.218688
2018-07-28T02:27:34.521Z,3.218688
2018-07-28T02:27:46.909Z,1.609344
2018-07-28T02:27:59.307Z,1.609344
2018-07-28T02:28:11.757Z,1.609344
2018-07-28T02:28:24.208Z,1.609344
2018-07-28T02:28:36.597Z,1.609344
2018-07-28T02:28:49.307Z,1.609344
2018-07-28T02:29:02.699Z,1.609344
2018-07-28T02:29:15.115Z,3.218688
2018-07-28T02:29:27.504Z,1.609344
2018-07-28T02:29:39.906Z,1.609344
2018-07-28T02:29:52.300Z,3.218688
2018-07-28T02:30:04.774Z,3.218688
2018-07-28T02:30:17.255Z,3.218688
2018-07-28T02:30:29.696Z,6.437376
2018-07-28T02:30:42.123Z,3.218688
2018-07-28T02:30:54.546Z,1.609344
2018-07-28T02:31:06.953Z,1.609344
2018-07-28T02:31:19.425Z,1.609344
2018-07-28T02:31:31.834Z,3.218688
2018-07-28T02:31:44.248Z,8.04672
2018-07-28T02:31:56.678Z,6.437376
2018-07-28T02:32:09.104Z,1.609344
2018-07-28T02:32:21.549Z,1.609344
2018-07-28T02:32:34.091Z,3.218688
2018-07-28T02:32:46.521Z,3.218688
2018-07-28T02:32:58.941Z,8.04672
2018-07-28T02:33:11.440Z,8.04672
2018-07-28T02:33:23.951Z,8.04672
2018-07-28T02:33:36.377Z,4.828032
2018-07-28T02:33:48.846Z,3.218688
2018-07-28T02:34:01.335Z,3.218688
2018-07-28T02:34:13.770Z,3.218688
2018-07-28T02:34:26.203Z,6.437376
2018-07-28T02:34:38.627Z,6.437376
2018-07-28T02:34:51.120Z,3.218688
2018-07-28T02:35:03.616Z,3.218688
2018-07-28T02:35:16.290Z,1.609344
2018-07-28T02:35:28.790Z,3.218688